Time;durP1;ratioP1;P1;durP2;ratioP2;P2;SDS_P1;SDS_P2;PMS_P1;PMS_P2;Temp;Humidity;BMP_temperature;BMP_pressure;BME280_temperature;BME280_humidity;BME280_pressure;Samples;Min_cycle;Max_cycle;Signal;HPM_P1;HPM_P2
2023/12/31 00:00:39;;;;;;;5.30;2.55;;;7.30;99.90;;;;;;4836495;29;20161;-79
2023/12/31 00:03:05;;;;;;;6.30;3.10;;;7.30;99.90;;;;;;4838498;29;20045;-79
2023/12/31 00:05:30;;;;;;;4.43;2.90;;;7.30;99.90;;;;;;4835167;29;20062;-79
2023/12/31 00:07:56;;;;;;;4.78;2.47;;;7.30;99.90;;;;;;4834987;29;20544;-79
2023/12/31 00:10:21;;;;;;;5.22;3.03;;;7.20;99.90;;;;;;4837671;29;20092;-79
2023/12/31 00:12:48;;;;;;;3.85;2.72;;;7.20;99.90;;;;;;4830653;29;20046;-80
2023/12/31 00:15:14;;;;;;;5.82;3.28;;;7.20;99.90;;;;;;4838114;29;20053;-79
2023/12/31 00:17:39;;;;;;;4.68;2.97;;;7.40;99.90;;;;;;4852046;29;20052;-79
2023/12/31 00:20:06;;;;;;;3.97;3.05;;;7.10;99.90;;;;;;4837518;29;20524;-79
2023/12/31 00:22:31;;;;;;;4.03;3.00;;;7.10;99.90;;;;;;4836211;29;20495;-79
2023/12/31 00:24:57;;;;;;;4.55;2.60;;;7.10;99.90;;;;;;4837204;29;20136;-79
2023/12/31 00:27:22;;;;;;;3.38;2.88;;;7.10;99.90;;;;;;4820509;29;20058;-79
2023/12/31 00:29:48;;;;;;;5.22;2.90;;;7.10;99.90;;;;;;4831603;29;20046;-79
2023/12/31 00:32:15;;;;;;;2.83;2.50;;;7.10;99.90;;;;;;4822075;29;20432;-79
2023/12/31 00:34:41;;;;;;;4.28;2.60;;;7.10;99.90;;;;;;4835979;29;20050;-79
2023/12/31 00:37:07;;;;;;;3.40;2.80;;;7.10;99.90;;;;;;4830316;29;20122;-79
2023/12/31 00:39:32;;;;;;;3.25;2.63;;;7.10;99.90;;;;;;4836176;29;20073;-79
2023/12/31 00:41:58;;;;;;;4.78;2.80;;;7.10;99.90;;;;;;4836827;29;20053;-79
2023/12/31 00:44:23;;;;;;;3.42;2.40;;;7.20;99.90;;;;;;4832684;29;20057;-79
2023/12/31 00:46:50;;;;;;;5.35;2.83;;;7.20;99.90;;;;;;4832472;29;20545;-79
2023/12/31 00:49:16;;;;;;;2.67;2.47;;;7.30;99.90;;;;;;4836455;29;20505;-79
2023/12/31 00:51:43;;;;;;;4.28;2.75;;;7.30;99.90;;;;;;4850183;29;20466;-79
2023/12/31 00:54:09;;;;;;;3.88;2.60;;;7.30;99.90;;;;;;4850886;29;20050;-79
2023/12/31 00:56:34;;;;;;;3.83;2.50;;;7.30;99.90;;;;;;4834423;29;20109;-79
2023/12/31 00:59:02;;;;;;;4.38;2.65;;;7.40;99.90;;;;;;4837108;29;20054;-79
2023/12/31 01:01:28;;;;;;;3.40;2.35;;;7.30;99.90;;;;;;4837253;29;20077;-79
2023/12/31 01:03:53;;;;;;;4.65;2.42;;;7.30;99.90;;;;;;4836950;29;20361;-79
2023/12/31 01:06:19;;;;;;;3.70;2.60;;;7.30;99.90;;;;;;4836610;29;20049;-79
2023/12/31 01:08:45;;;;;;;3.10;2.40;;;7.30;99.90;;;;;;4832505;29;20735;-79
2023/12/31 01:11:11;;;;;;;3.17;2.47;;;7.20;99.90;;;;;;4826448;29;20042;-79
2023/12/31 01:13:37;;;;;;;4.63;2.35;;;7.20;99.90;;;;;;4828925;29;20126;-79
2023/12/31 01:16:04;;;;;;;2.83;2.28;;;7.20;99.90;;;;;;4828754;29;20133;-79
2023/12/31 01:18:30;;;;;;;2.97;2.13;;;7.20;99.90;;;;;;4831248;29;20076;-80
2023/12/31 01:20:56;;;;;;;2.92;2.17;;;7.10;99.90;;;;;;4823829;29;20461;-79
2023/12/31 01:23:21;;;;;;;2.42;2.17;;;7.10;99.90;;;;;;4828942;29;20705;-80
2023/12/31 01:25:47;;;;;;;3.83;1.95;;;7.20;99.90;;;;;;4833834;29;20042;-79
2023/12/31 01:28:12;;;;;;;3.60;2.30;;;7.10;99.90;;;;;;4820571;29;20454;-79
2023/12/31 01:30:38;;;;;;;3.55;2.30;;;7.10;99.90;;;;;;4825426;29;20047;-79
2023/12/31 01:33:04;;;;;;;2.75;2.30;;;7.10;99.90;;;;;;4819879;29;20050;-79
2023/12/31 01:35:29;;;;;;;4.03;2.10;;;7.10;99.90;;;;;;4829142;29;20061;-79
2023/12/31 01:37:55;;;;;;;3.22;2.20;;;7.10;99.90;;;;;;4829124;29;20041;-79
2023/12/31 01:40:21;;;;;;;3.45;2.35;;;7.10;99.90;;;;;;4831166;29;20110;-79
2023/12/31 01:42:46;;;;;;;3.78;2.30;;;7.10;99.90;;;;;;4832508;29;20089;-79
2023/12/31 01:45:12;;;;;;;4.68;2.25;;;7.10;99.90;;;;;;4826945;29;20070;-79
2023/12/31 01:47:38;;;;;;;6.50;2.80;;;7.10;99.90;;;;;;4839111;29;20509;-79
2023/12/31 01:50:05;;;;;;;3.83;2.70;;;7.10;99.90;;;;;;4827265;29;20046;-79
2023/12/31 01:52:32;;;;;;;4.15;2.50;;;7.10;99.90;;;;;;4830450;29;20138;-79
2023/12/31 01:55:00;;;;;;;3.53;2.55;;;7.40;99.90;;;;;;4826548;29;20068;-79
2023/12/31 01:57:29;;;;;;;2.95;2.58;;;7.10;99.90;;;;;;4838482;29;20092;-79
2023/12/31 02:00:05;;;;;;;2.90;2.60;;;7.10;99.90;;;;;;4842508;29;20046;-79
2023/12/31 02:02:31;;;;;;;2.70;2.13;;;7.20;99.90;;;;;;4827213;29;20089;-79
2023/12/31 02:04:57;;;;;;;3.45;2.25;;;7.10;99.90;;;;;;4835005;29;20089;-79
2023/12/31 02:07:24;;;;;;;4.25;2.72;;;7.10;99.90;;;;;;4828355;29;20053;-79
2023/12/31 02:09:51;;;;;;;3.92;2.60;;;7.20;99.90;;;;;;4824680;29;20057;-79
2023/12/31 02:12:17;;;;;;;3.90;2.40;;;7.20;99.90;;;;;;4840677;29;20041;-79
2023/12/31 02:14:43;;;;;;;3.22;2.10;;;7.20;99.90;;;;;;4826810;29;20153;-79
2023/12/31 02:17:09;;;;;;;4.70;2.47;;;7.20;99.90;;;;;;4835068;29;20052;-79
2023/12/31 02:19:34;;;;;;;4.15;2.33;;;7.20;99.90;;;;;;4836153;29;20053;-79
2023/12/31 02:22:01;;;;;;;2.40;2.10;;;7.20;99.90;;;;;;4826536;29;20057;-79
2023/12/31 02:24:38;;;;;;;4.07;2.30;;;7.20;99.90;;;;;;4831998;29;20049;-79
2023/12/31 02:27:03;;;;;;;2.50;1.88;;;7.20;99.90;;;;;;4830447;29;20118;-79
2023/12/31 02:29:29;;;;;;;4.10;2.30;;;7.30;99.90;;;;;;4838408;29;20079;-79
2023/12/31 02:31:54;;;;;;;2.83;2.05;;;7.30;99.90;;;;;;4834394;29;20116;-79
2023/12/31 02:34:20;;;;;;;3.40;2.00;;;7.20;99.90;;;;;;4823693;29;20075;-79
2023/12/31 02:36:46;;;;;;;3.70;2.30;;;7.30;99.90;;;;;;4829850;29;20495;-79
2023/12/31 02:39:11;;;;;;;2.50;1.95;;;7.30;99.90;;;;;;4836410;29;20098;-79
2023/12/31 02:41:37;;;;;;;4.78;2.10;;;7.30;99.90;;;;;;4833612;29;20259;-79
2023/12/31 02:44:02;;;;;;;4.05;1.73;;;7.30;99.90;;;;;;4828553;29;20089;-80
2023/12/31 02:46:28;;;;;;;3.83;1.83;;;7.30;99.90;;;;;;4835474;29;20560;-79
2023/12/31 02:48:54;;;;;;;2.92;2.00;;;7.30;99.90;;;;;;4828173;29;20046;-79
2023/12/31 02:51:19;;;;;;;3.45;2.00;;;7.30;99.90;;;;;;4824804;29;20054;-79
2023/12/31 02:53:45;;;;;;;3.58;2.00;;;7.30;99.90;;;;;;4828086;29;20034;-79
2023/12/31 02:56:10;;;;;;;2.22;1.80;;;7.40;99.90;;;;;;4834867;29;20049;-79
2023/12/31 02:58:36;;;;;;;3.10;1.95;;;7.40;99.90;;;;;;4829551;29;20042;-79
2023/12/31 03:01:01;;;;;;;2.63;1.90;;;7.40;99.90;;;;;;4835790;29;20039;-79
2023/12/31 03:03:27;;;;;;;2.80;1.77;;;7.40;99.90;;;;;;4825081;29;20135;-80
2023/12/31 03:05:53;;;;;;;2.78;1.98;;;7.50;99.90;;;;;;4828854;29;20103;-79
2023/12/31 03:08:21;;;;;;;3.40;2.20;;;7.50;99.90;;;;;;4827190;29;20528;-79
2023/12/31 03:10:47;;;;;;;2.75;1.92;;;8.20;99.90;;;;;;4822428;29;20042;-80
2023/12/31 03:13:14;;;;;;;2.33;1.90;;;7.50;99.90;;;;;;4831781;29;20091;-80
2023/12/31 03:15:39;;;;;;;2.47;1.83;;;7.40;99.90;;;;;;4827452;29;20060;-80
2023/12/31 03:18:07;;;;;;;2.15;1.95;;;7.40;99.90;;;;;;4836858;29;20050;-80
2023/12/31 03:20:33;;;;;;;2.13;1.67;;;7.40;99.90;;;;;;4834538;29;20138;-80
2023/12/31 03:22:58;;;;;;;2.55;2.00;;;7.40;99.90;;;;;;4822842;29;20447;-80
2023/12/31 03:25:24;;;;;;;2.53;1.90;;;7.40;99.90;;;;;;4828610;29;20104;-80
2023/12/31 03:27:49;;;;;;;2.53;1.77;;;7.40;99.90;;;;;;4830379;29;20128;-80
2023/12/31 03:30:15;;;;;;;2.58;1.70;;;7.40;99.90;;;;;;4825939;29;20075;-79
2023/12/31 03:32:40;;;;;;;1.83;1.60;;;7.40;99.90;;;;;;4834079;29;20064;-80
2023/12/31 03:35:06;;;;;;;2.35;1.80;;;7.30;99.90;;;;;;4833586;29;20822;-80
2023/12/31 03:37:33;;;;;;;2.85;1.60;;;7.30;99.90;;;;;;4831299;29;20061;-80
2023/12/31 03:39:59;;;;;;;2.15;1.60;;;7.30;99.90;;;;;;4834651;29;20157;-80
2023/12/31 03:42:24;;;;;;;2.95;1.60;;;7.30;99.90;;;;;;4827092;29;20132;-80
2023/12/31 03:44:50;;;;;;;1.80;1.70;;;7.30;99.90;;;;;;4825339;29;20113;-80
2023/12/31 03:47:16;;;;;;;3.30;2.20;;;7.20;99.90;;;;;;4825655;29;20037;-80
2023/12/31 03:49:41;;;;;;;4.10;1.80;;;7.20;99.90;;;;;;4826726;29;20049;-80
2023/12/31 03:52:07;;;;;;;3.17;2.03;;;7.20;99.90;;;;;;4832534;29;20050;-79
2023/12/31 03:54:32;;;;;;;2.13;1.85;;;7.20;99.90;;;;;;4841439;29;20046;-80
2023/12/31 03:56:58;;;;;;;2.10;1.90;;;7.10;99.90;;;;;;4826912;29;20238;-80
2023/12/31 03:59:24;;;;;;;2.95;1.80;;;7.10;99.90;;;;;;4827785;29;20050;-80
2023/12/31 04:01:56;;;;;;;2.90;1.77;;;7.10;99.90;;;;;;4836844;29;20049;-79
2023/12/31 04:04:21;;;;;;;2.13;1.83;;;7.10;99.90;;;;;;4831430;29;20138;-79
2023/12/31 04:06:47;;;;;;;2.60;1.98;;;7.10;99.90;;;;;;4826144;29;20125;-80
2023/12/31 04:09:12;;;;;;;2.65;2.00;;;7.10;99.90;;;;;;4820513;29;20046;-80
2023/12/31 04:11:38;;;;;;;3.85;2.30;;;7.00;99.90;;;;;;4833918;29;20060;-80
2023/12/31 04:14:04;;;;;;;2.80;2.22;;;7.00;99.90;;;;;;4826028;29;20070;-80
2023/12/31 04:16:29;;;;;;;2.60;1.85;;;7.00;99.90;;;;;;4830807;29;20053;-80
2023/12/31 04:18:55;;;;;;;3.22;2.35;;;7.00;99.90;;;;;;4846851;29;20094;-80
2023/12/31 04:21:23;;;;;;;3.65;2.00;;;7.00;99.90;;;;;;4833875;29;20497;-80
2023/12/31 04:23:49;;;;;;;3.58;2.30;;;7.00;99.90;;;;;;4827177;29;20045;-80
2023/12/31 04:26:14;;;;;;;4.28;2.50;;;7.00;99.90;;;;;;4832458;29;20045;-80
2023/12/31 04:28:40;;;;;;;4.18;2.40;;;7.00;99.90;;;;;;4829581;29;20046;-79
2023/12/31 04:31:06;;;;;;;2.80;1.95;;;7.00;99.90;;;;;;4828841;29;20042;-80
2023/12/31 04:33:32;;;;;;;2.78;2.40;;;7.00;99.90;;;;;;4827918;29;20464;-79
2023/12/31 04:36:02;;;;;;;4.18;2.38;;;7.00;99.90;;;;;;4836660;29;20068;-79
2023/12/31 04:38:27;;;;;;;3.05;2.22;;;7.00;99.90;;;;;;4830178;29;20404;-79
2023/12/31 04:40:53;;;;;;;2.97;2.22;;;7.00;99.90;;;;;;4829600;29;20049;-79
2023/12/31 04:43:19;;;;;;;3.97;2.20;;;7.00;99.90;;;;;;4829966;29;20103;-80
2023/12/31 04:45:44;;;;;;;5.22;2.63;;;7.00;99.90;;;;;;4827852;29;20125;-80
2023/12/31 04:48:10;;;;;;;3.55;2.28;;;7.00;99.90;;;;;;4820968;29;20117;-79
2023/12/31 04:50:35;;;;;;;2.50;2.30;;;7.10;99.90;;;;;;4832052;29;20125;-80
2023/12/31 04:53:01;;;;;;;3.97;2.50;;;7.00;99.90;;;;;;4840472;29;20049;-80
2023/12/31 04:55:26;;;;;;;3.28;2.15;;;7.10;99.90;;;;;;4849752;29;20068;-80
2023/12/31 04:57:52;;;;;;;4.47;2.38;;;7.10;99.90;;;;;;4834888;29;20046;-79
2023/12/31 05:00:18;;;;;;;3.83;1.92;;;7.10;99.90;;;;;;4830904;29;20054;-80
2023/12/31 05:02:43;;;;;;;3.20;2.35;;;7.00;99.90;;;;;;4835828;29;20061;-80
2023/12/31 05:05:09;;;;;;;3.00;2.33;;;7.10;99.90;;;;;;4831792;29;20065;-80
2023/12/31 05:07:35;;;;;;;3.17;2.38;;;7.10;99.90;;;;;;4835221;29;20186;-80
2023/12/31 05:10:01;;;;;;;4.20;2.53;;;7.70;99.90;;;;;;4836691;29;20054;-80
2023/12/31 05:12:27;;;;;;;5.38;2.63;;;7.10;99.90;;;;;;4836119;29;20058;-80
2023/12/31 05:14:53;;;;;;;4.00;2.50;;;7.10;99.90;;;;;;4826261;29;20038;-80
2023/12/31 05:17:18;;;;;;;2.72;2.42;;;7.10;99.90;;;;;;4819323;29;20054;-80
2023/12/31 05:19:45;;;;;;;5.18;2.72;;;7.10;99.90;;;;;;4829240;29;20049;-80
2023/12/31 05:22:11;;;;;;;4.80;2.45;;;7.10;99.90;;;;;;4821157;29;20065;-80
2023/12/31 05:24:36;;;;;;;4.15;2.63;;;7.20;99.90;;;;;;4829634;29;20046;-80
2023/12/31 05:27:02;;;;;;;4.40;2.70;;;7.60;99.90;;;;;;4827949;29;20057;-80
2023/12/31 05:29:27;;;;;;;3.00;2.30;;;7.10;99.90;;;;;;4821331;29;20061;-80
2023/12/31 05:31:53;;;;;;;2.63;2.35;;;7.20;99.90;;;;;;4831054;29;20049;-80
2023/12/31 05:34:18;;;;;;;4.57;2.22;;;7.20;99.90;;;;;;4832996;29;20081;-80
2023/12/31 05:36:44;;;;;;;3.65;2.63;;;7.20;99.90;;;;;;4830558;29;20054;-80
2023/12/31 05:39:11;;;;;;;3.80;2.17;;;7.20;99.90;;;;;;4825450;29;20529;-80
2023/12/31 05:41:37;;;;;;;3.92;2.92;;;7.20;99.90;;;;;;4829398;29;20069;-80
2023/12/31 05:44:03;;;;;;;3.92;2.40;;;7.20;99.90;;;;;;4829483;29;21622;-80
2023/12/31 05:46:29;;;;;;;4.18;2.65;;;7.20;99.90;;;;;;4835812;29;20042;-80
2023/12/31 05:48:55;;;;;;;3.95;2.60;;;7.30;99.90;;;;;;4832815;29;20049;-80
2023/12/31 05:51:21;;;;;;;2.72;2.53;;;7.30;99.90;;;;;;4822445;29;20057;-80
2023/12/31 05:53:46;;;;;;;3.50;2.20;;;7.30;99.90;;;;;;4830343;29;20053;-80
2023/12/31 05:56:12;;;;;;;3.03;2.70;;;7.30;99.90;;;;;;4818382;29;20081;-79
2023/12/31 05:58:38;;;;;;;4.43;2.67;;;7.30;99.90;;;;;;4827040;29;20091;-79
2023/12/31 06:01:03;;;;;;;4.45;2.80;;;7.30;99.90;;;;;;4825313;29;20121;-80
2023/12/31 06:03:29;;;;;;;3.80;2.45;;;7.40;99.90;;;;;;4822503;29;20498;-79
2023/12/31 06:05:55;;;;;;;2.95;2.50;;;7.40;99.90;;;;;;4828219;29;20529;-80
2023/12/31 06:08:20;;;;;;;4.10;2.30;;;7.40;99.90;;;;;;4834717;29;20050;-80
2023/12/31 06:10:46;;;;;;;3.15;2.72;;;7.40;99.90;;;;;;4827730;29;20053;-80
2023/12/31 06:13:12;;;;;;;4.90;2.90;;;7.40;99.90;;;;;;4825274;29;20054;-80
2023/12/31 06:15:37;;;;;;;3.75;2.40;;;7.40;99.90;;;;;;4820612;29;20058;-79
2023/12/31 06:18:03;;;;;;;3.53;2.72;;;7.40;99.90;;;;;;4846667;29;20184;-79
2023/12/31 06:20:29;;;;;;;2.95;2.63;;;7.40;99.90;;;;;;4829586;29;20467;-78
2023/12/31 06:22:55;;;;;;;3.88;2.38;;;7.40;99.90;;;;;;4827124;29;20425;-78
2023/12/31 06:25:21;;;;;;;3.67;2.60;;;7.40;99.90;;;;;;4838562;29;20149;-79
2023/12/31 06:27:46;;;;;;;2.75;2.45;;;7.40;99.90;;;;;;4826021;29;20445;-79
2023/12/31 06:30:12;;;;;;;4.65;2.50;;;7.40;99.90;;;;;;4830412;29;20049;-79
2023/12/31 06:32:38;;;;;;;3.50;2.65;;;7.40;99.90;;;;;;4825353;29;20129;-79
2023/12/31 06:35:04;;;;;;;3.65;3.10;;;7.40;99.90;;;;;;4821642;29;20058;-78
2023/12/31 06:37:30;;;;;;;3.53;2.75;;;7.40;99.90;;;;;;4826942;29;20054;-79
2023/12/31 06:39:55;;;;;;;4.05;2.90;;;7.50;99.90;;;;;;4825927;29;20095;-78
2023/12/31 06:42:22;;;;;;;3.17;2.78;;;7.70;99.90;;;;;;4818788;29;20153;-79
2023/12/31 06:44:47;;;;;;;3.08;2.78;;;7.40;99.90;;;;;;4830669;29;20056;-79
2023/12/31 06:47:13;;;;;;;3.00;2.70;;;7.40;99.90;;;;;;4832653;29;20050;-79
2023/12/31 06:49:39;;;;;;;3.00;2.70;;;7.50;99.90;;;;;;4824684;29;20054;-80
2023/12/31 06:52:05;;;;;;;4.10;2.95;;;7.40;99.90;;;;;;4829261;29;20042;-80
2023/12/31 06:54:30;;;;;;;3.35;2.58;;;7.50;99.90;;;;;;4832144;29;20054;-80
2023/12/31 06:56:56;;;;;;;5.43;2.75;;;7.50;99.90;;;;;;4833228;29;20471;-78
2023/12/31 06:59:22;;;;;;;3.67;2.85;;;7.50;99.90;;;;;;4833282;29;20049;-79
2023/12/31 07:01:47;;;;;;;3.65;2.50;;;7.50;99.90;;;;;;4830195;29;20711;-78
2023/12/31 07:04:13;;;;;;;3.58;2.72;;;7.50;99.90;;;;;;4836486;29;20064;-78
2023/12/31 07:06:39;;;;;;;4.18;3.10;;;7.50;99.90;;;;;;4842535;29;20042;-78
2023/12/31 07:09:05;;;;;;;3.63;2.70;;;7.50;99.90;;;;;;4835475;29;20126;-78
2023/12/31 07:11:31;;;;;;;4.65;2.80;;;7.50;99.90;;;;;;4847415;29;20053;-78
2023/12/31 07:13:56;;;;;;;3.20;2.90;;;7.50;99.90;;;;;;4856043;29;20052;-78
2023/12/31 07:16:22;;;;;;;3.38;2.70;;;7.50;99.90;;;;;;4837986;29;20068;-78
2023/12/31 07:18:48;;;;;;;3.10;2.80;;;7.50;99.90;;;;;;4837229;29;20046;-78
2023/12/31 07:21:23;;;;;;;3.72;2.80;;;7.50;99.90;;;;;;4835707;29;20053;-78
2023/12/31 07:23:49;;;;;;;3.35;2.60;;;7.50;99.90;;;;;;4839657;29;20667;-81
2023/12/31 07:26:28;;;;;;;4.07;3.03;;;7.50;99.90;;;;;;4832503;29;20060;-82
2023/12/31 07:28:54;;;;;;;2.70;2.33;;;7.60;99.90;;;;;;4831848;29;20562;-81
2023/12/31 07:31:20;;;;;;;2.63;2.42;;;8.20;99.90;;;;;;4828491;29;20050;-81
2023/12/31 07:33:47;;;;;;;3.50;2.60;;;7.70;99.90;;;;;;4825886;29;20050;-81
2023/12/31 07:36:12;;;;;;;2.63;2.42;;;7.70;99.90;;;;;;4839623;29;20077;-81
2023/12/31 07:38:38;;;;;;;3.47;2.83;;;7.70;99.90;;;;;;4836578;29;20049;-81
2023/12/31 07:41:04;;;;;;;3.15;2.70;;;7.70;99.90;;;;;;4833051;29;20046;-81
2023/12/31 07:43:31;;;;;;;4.93;2.60;;;7.80;99.90;;;;;;4835312;29;20126;-81
2023/12/31 07:45:56;;;;;;;4.05;2.78;;;7.80;99.90;;;;;;4827187;29;20454;-81
2023/12/31 07:48:22;;;;;;;2.67;2.42;;;7.80;99.90;;;;;;4835199;29;20054;-81
2023/12/31 07:50:48;;;;;;;3.63;2.80;;;7.80;99.90;;;;;;4846525;29;20085;-81
2023/12/31 07:53:14;;;;;;;3.55;2.80;;;7.80;99.90;;;;;;4833214;29;20049;-81
2023/12/31 07:55:39;;;;;;;3.08;2.78;;;7.90;99.90;;;;;;4832740;29;20110;-81
2023/12/31 07:58:05;;;;;;;3.35;2.53;;;7.90;99.90;;;;;;4826446;29;20046;-81
2023/12/31 08:00:30;;;;;;;3.05;2.78;;;7.90;99.90;;;;;;4836236;29;20046;-81
2023/12/31 08:02:56;;;;;;;3.45;2.80;;;7.90;99.90;;;;;;4831361;29;20045;-81
2023/12/31 08:05:22;;;;;;;4.28;2.50;;;7.90;99.90;;;;;;4838739;29;20089;-81
2023/12/31 08:07:47;;;;;;;3.97;2.50;;;7.90;99.90;;;;;;4831533;29;20042;-81
2023/12/31 08:10:13;;;;;;;2.60;2.38;;;7.90;99.90;;;;;;4833768;29;20074;-81
2023/12/31 08:12:38;;;;;;;2.95;2.65;;;7.90;99.90;;;;;;4823239;29;20058;-81
2023/12/31 08:15:05;;;;;;;4.03;2.75;;;7.90;99.90;;;;;;4833943;29;20087;-80
2023/12/31 08:17:31;;;;;;;3.42;2.72;;;7.90;99.90;;;;;;4833458;29;20062;-81
2023/12/31 08:19:57;;;;;;;3.10;2.70;;;7.90;99.90;;;;;;4826305;29;20536;-80
2023/12/31 08:22:23;;;;;;;3.85;3.00;;;7.90;99.90;;;;;;4826120;29;20047;-80
2023/12/31 08:24:48;;;;;;;4.30;2.80;;;8.00;99.90;;;;;;4830221;29;20050;-82
2023/12/31 08:27:14;;;;;;;2.50;2.30;;;8.00;99.90;;;;;;4830808;29;20611;-80
2023/12/31 08:29:42;;;;;;;5.32;2.72;;;8.00;99.90;;;;;;4834454;29;20099;-82
2023/12/31 08:32:09;;;;;;;4.15;2.70;;;8.00;99.90;;;;;;4830296;29;20516;-82
2023/12/31 08:34:36;;;;;;;6.53;2.95;;;8.00;99.90;;;;;;4836717;29;20062;-83
2023/12/31 08:37:02;;;;;;;4.65;2.70;;;8.00;99.90;;;;;;4828550;29;20058;-83
2023/12/31 08:39:27;;;;;;;3.72;2.60;;;8.00;99.90;;;;;;4829172;29;20057;-83
2023/12/31 08:41:53;;;;;;;4.13;2.60;;;8.40;99.90;;;;;;4836458;29;20058;-83
2023/12/31 08:44:19;;;;;;;3.05;2.67;;;8.10;99.90;;;;;;4829362;29;20077;-82
2023/12/31 08:46:45;;;;;;;3.65;2.88;;;8.10;99.90;;;;;;4827927;29;20102;-82
2023/12/31 08:49:10;;;;;;;2.95;2.65;;;8.10;99.90;;;;;;4840729;29;20054;-81
2023/12/31 08:51:36;;;;;;;2.60;2.33;;;8.20;99.90;;;;;;4827296;29;20056;-81
2023/12/31 08:54:02;;;;;;;3.05;2.60;;;8.20;99.90;;;;;;4826193;29;20060;-82
2023/12/31 08:56:28;;;;;;;3.65;2.67;;;8.20;99.90;;;;;;4825412;29;20171;-82
2023/12/31 08:58:53;;;;;;;2.63;2.42;;;8.30;99.90;;;;;;4812033;29;20043;-82
2023/12/31 09:01:19;;;;;;;5.18;2.70;;;8.30;99.90;;;;;;4819539;29;20091;-82
2023/12/31 09:03:45;;;;;;;4.03;3.03;;;8.30;99.90;;;;;;4831891;29;20181;-82
2023/12/31 09:06:10;;;;;;;2.75;2.53;;;8.30;99.90;;;;;;4828467;29;20042;-82
2023/12/31 09:08:36;;;;;;;2.55;2.30;;;8.20;99.90;;;;;;4831346;29;20061;-82
2023/12/31 09:11:02;;;;;;;3.30;2.67;;;8.30;99.90;;;;;;4836475;29;20138;-82
2023/12/31 09:13:27;;;;;;;2.90;2.60;;;8.30;99.90;;;;;;4808588;29;20058;-82
2023/12/31 09:15:55;;;;;;;3.00;2.70;;;8.30;99.90;;;;;;4828846;29;20078;-82
2023/12/31 09:18:21;;;;;;;4.85;2.80;;;8.30;99.90;;;;;;4831325;29;20062;-83
2023/12/31 09:20:47;;;;;;;3.75;2.50;;;8.30;99.90;;;;;;4829125;29;20045;-82
2023/12/31 09:23:12;;;;;;;3.67;2.70;;;8.30;99.90;;;;;;4828189;29;20072;-83
2023/12/31 09:25:38;;;;;;;3.20;2.47;;;8.30;99.90;;;;;;4823148;29;20050;-82
2023/12/31 09:28:04;;;;;;;5.55;2.60;;;8.40;99.90;;;;;;4833081;29;20046;-82
2023/12/31 09:30:30;;;;;;;3.15;2.60;;;8.40;99.90;;;;;;4831431;29;20046;-83
2023/12/31 09:32:55;;;;;;;3.13;2.67;;;8.40;99.90;;;;;;4834520;29;20050;-82
2023/12/31 09:35:21;;;;;;;2.88;2.50;;;8.40;99.90;;;;;;4828482;29;20163;-83
2023/12/31 09:37:46;;;;;;;5.32;2.58;;;8.40;99.90;;;;;;4823221;29;20054;-80
2023/12/31 09:40:12;;;;;;;4.03;2.60;;;8.50;99.90;;;;;;4825566;29;20373;-82
2023/12/31 09:42:49;;;;;;;2.95;2.60;;;8.50;99.90;;;;;;4825914;29;20091;-81
2023/12/31 09:45:21;;;;;;;3.55;2.45;;;8.90;99.90;;;;;;4832322;29;20057;-81
2023/12/31 09:47:48;;;;;;;4.00;2.92;;;8.60;99.90;;;;;;4830282;29;20052;-80
2023/12/31 09:50:18;;;;;;;3.22;2.85;;;8.60;99.90;;;;;;4819900;29;20042;-81
2023/12/31 09:52:44;;;;;;;5.93;2.78;;;8.60;99.90;;;;;;4830837;29;20054;-81
2023/12/31 09:55:10;;;;;;;3.72;3.17;;;8.60;99.90;;;;;;4831541;29;20058;-83
2023/12/31 09:57:36;;;;;;;3.50;3.20;;;8.70;99.90;;;;;;4827948;29;20077;-82
2023/12/31 10:00:05;;;;;;;3.78;2.92;;;9.00;99.90;;;;;;4832562;29;20050;-83
2023/12/31 10:02:32;;;;;;;3.10;2.80;;;8.70;99.90;;;;;;4818250;29;20124;-82
2023/12/31 10:04:58;;;;;;;3.67;2.90;;;8.80;99.90;;;;;;4832292;29;20110;-82
2023/12/31 10:07:24;;;;;;;4.30;2.92;;;8.90;99.90;;;;;;4830375;29;20049;-82
2023/12/31 10:09:51;;;;;;;5.03;3.00;;;9.20;99.90;;;;;;4833854;29;20133;-82
2023/12/31 10:12:17;;;;;;;3.97;2.72;;;9.00;99.90;;;;;;4829776;29;20057;-81
2023/12/31 10:14:43;;;;;;;6.82;3.08;;;9.00;99.90;;;;;;4811510;29;20038;-81
2023/12/31 10:17:09;;;;;;;3.55;2.95;;;9.10;99.90;;;;;;4835250;29;20335;-81
2023/12/31 10:19:34;;;;;;;4.70;2.97;;;9.10;99.90;;;;;;4829278;29;20060;-83
2023/12/31 10:22:00;;;;;;;4.90;3.25;;;9.20;99.90;;;;;;4827521;29;20441;-81
2023/12/31 10:24:29;;;;;;;4.47;3.75;;;;;;;;;;4835698;29;20092;-80
2023/12/31 10:26:56;;;;;;;4.20;3.15;;;9.30;99.90;;;;;;4833296;29;20053;-82
2023/12/31 10:29:21;;;;;;;4.60;3.50;;;9.20;99.90;;;;;;4832268;29;20144;-81
2023/12/31 10:31:47;;;;;;;3.97;3.08;;;9.30;99.90;;;;;;4825973;29;20050;-81
2023/12/31 10:34:17;;;;;;;3.30;3.00;;;9.30;99.90;;;;;;4829662;29;20053;-81
2023/12/31 10:36:47;;;;;;;5.78;2.90;;;9.30;99.90;;;;;;4838515;29;20054;-81
2023/12/31 10:39:27;;;;;;;4.00;3.00;;;9.30;99.90;;;;;;4830221;29;20048;-82
2023/12/31 10:42:04;;;;;;;3.30;3.00;;;9.40;99.90;;;;;;4821755;29;20041;-82
2023/12/31 10:44:35;;;;;;;3.90;3.13;;;9.50;99.90;;;;;;4828362;29;20046;-82
2023/12/31 10:47:04;;;;;;;3.33;3.03;;;9.50;99.90;;;;;;4831703;29;20046;-82
2023/12/31 10:49:32;;;;;;;3.55;3.15;;;9.60;99.90;;;;;;4830655;29;20122;-81
2023/12/31 10:52:04;;;;;;;4.32;3.47;;;9.60;99.90;;;;;;4827057;29;20437;-81
2023/12/31 10:54:41;;;;;;;5.07;3.38;;;9.60;99.90;;;;;;4828130;29;20054;-82
2023/12/31 10:57:09;;;;;;;3.67;3.10;;;9.60;99.90;;;;;;4834777;29;20077;-82
2023/12/31 10:59:36;;;;;;;4.13;3.10;;;9.70;99.90;;;;;;4829643;29;20077;-82
2023/12/31 11:02:04;;;;;;;4.00;3.10;;;9.60;99.90;;;;;;4833200;29;20133;-82
2023/12/31 11:04:30;;;;;;;3.75;3.28;;;9.60;99.90;;;;;;4838231;29;20060;-82
2023/12/31 11:06:56;;;;;;;3.03;2.78;;;10.30;99.90;;;;;;4836283;29;20061;-81
2023/12/31 11:09:22;;;;;;;4.28;3.63;;;9.60;99.90;;;;;;4833378;29;20042;-82
2023/12/31 11:11:51;;;;;;;4.10;3.42;;;9.60;99.90;;;;;;4830146;29;20054;-82
2023/12/31 11:14:20;;;;;;;6.30;3.70;;;9.60;99.90;;;;;;4833329;29;20062;-82
2023/12/31 11:17:02;;;;;;;3.70;3.25;;;9.60;99.90;;;;;;4843823;29;20055;-81
2023/12/31 11:19:44;;;;;;;3.40;3.10;;;9.60;99.90;;;;;;4830664;29;20511;-82
2023/12/31 11:22:38;;;;;;;3.67;3.03;;;9.50;99.90;;;;;;4825650;29;20118;-81
2023/12/31 11:25:06;;;;;;;3.90;3.17;;;9.50;99.90;;;;;;4838092;29;20299;-81
2023/12/31 11:27:32;;;;;;;3.65;2.90;;;9.50;99.90;;;;;;4846230;29;20500;-81
2023/12/31 11:29:58;;;;;;;3.20;2.80;;;9.50;99.90;;;;;;4838662;29;20110;-82
2023/12/31 11:32:25;;;;;;;2.88;2.58;;;9.50;99.90;;;;;;4830592;29;20049;-81
2023/12/31 11:34:52;;;;;;;2.85;2.60;;;9.50;99.90;;;;;;4830762;29;20082;-82
2023/12/31 11:37:18;;;;;;;3.75;3.35;;;9.40;99.90;;;;;;4831299;29;20563;-81
2023/12/31 11:39:47;;;;;;;4.85;3.53;;;9.30;99.90;;;;;;4832030;29;20088;-81
2023/12/31 11:42:12;;;;;;;1.83;1.50;;;9.30;99.90;;;;;;4837982;29;20145;-81
2023/12/31 11:44:46;;;;;;;2.25;1.83;;;9.10;99.90;;;;;;4837284;29;20163;-82
2023/12/31 11:47:22;;;;;;;4.10;1.33;;;8.70;99.90;;;;;;4829474;29;20046;-80
2023/12/31 11:49:52;;;;;;;1.83;0.90;;;8.40;99.90;;;;;;4835528;29;20609;-82
2023/12/31 11:52:31;;;;;;;1.00;0.90;;;8.20;99.90;;;;;;4822865;29;20077;-80
2023/12/31 11:54:58;;;;;;;2.60;1.20;;;8.10;99.90;;;;;;4836340;29;20057;-80
2023/12/31 11:57:25;;;;;;;1.75;1.30;;;8.00;99.90;;;;;;4831395;29;20050;-80
2023/12/31 11:59:51;;;;;;;3.22;1.50;;;8.00;99.90;;;;;;4831059;29;20056;-80
2023/12/31 12:02:17;;;;;;;2.58;1.58;;;8.00;99.90;;;;;;4830797;29;20420;-80
2023/12/31 12:04:42;;;;;;;2.15;1.80;;;7.90;99.90;;;;;;4829961;29;20147;-81
2023/12/31 12:07:08;;;;;;;3.63;1.75;;;7.90;99.90;;;;;;4821905;29;20100;-80
2023/12/31 12:09:34;;;;;;;4.80;1.40;;;7.90;99.90;;;;;;4831140;29;20068;-80
2023/12/31 12:12:02;;;;;;;1.95;1.30;;;7.90;99.90;;;;;;4829908;29;20103;-80
2023/12/31 12:14:29;;;;;;;2.90;1.48;;;7.80;99.90;;;;;;4831849;29;20038;-80
2023/12/31 12:16:54;;;;;;;3.40;1.45;;;7.80;99.90;;;;;;4830795;29;20045;-80
2023/12/31 12:19:21;;;;;;;2.50;1.48;;;7.70;99.90;;;;;;4834796;29;20114;-80
2023/12/31 12:21:48;;;;;;;3.08;1.88;;;7.80;99.90;;;;;;4825354;29;20085;-80
2023/12/31 12:24:14;;;;;;;3.30;2.08;;;7.90;99.90;;;;;;4829024;29;20049;-80
2023/12/31 12:26:40;;;;;;;2.90;2.25;;;8.10;99.90;;;;;;4827632;29;20058;-81
2023/12/31 12:29:08;;;;;;;2.83;2.17;;;8.20;99.90;;;;;;4822213;29;20047;-81
2023/12/31 12:31:37;;;;;;;5.65;2.88;;;8.40;99.90;;;;;;4834466;29;20663;-80
2023/12/31 12:34:07;;;;;;;8.20;4.13;;;8.40;99.90;;;;;;4835151;29;20057;-80
2023/12/31 12:36:33;;;;;;;13.35;5.82;;;8.40;99.90;;;;;;4812598;29;20149;-79
2023/12/31 12:39:05;;;;;;;12.32;6.13;;;8.40;99.90;;;;;;4816455;29;20039;-79
2023/12/31 12:41:33;;;;;;;9.55;5.65;;;8.40;99.90;;;;;;4818301;29;20051;-79
2023/12/31 12:44:09;;;;;;;7.68;5.07;;;8.80;99.90;;;;;;4819071;29;20482;-79
2023/12/31 12:46:35;;;;;;;8.40;5.18;;;8.30;99.90;;;;;;4818756;29;20058;-80
2023/12/31 12:49:03;;;;;;;6.70;4.15;;;8.30;99.90;;;;;;4819479;29;20077;-80
2023/12/31 12:51:29;;;;;;;5.07;3.17;;;8.30;99.90;;;;;;4818061;29;20054;-81
2023/12/31 12:53:55;;;;;;;3.38;2.60;;;8.30;99.90;;;;;;4832343;29;20477;-80